Bellville, TX (77418)

8:25 AM CDT on August 30, 2015 (GMT -0500)
Piney Creek | | Change Station
CLOSE
Current Station
Personal Weather Station
Location: Bellville, TX
Elevation: 330 ft
Nearby Weather Stations

Elev 330 ft 30.01 °N, 96.28 °W | Updated 1 minute ago

Partly Cloudy
Partly Cloudy
72.0 °F
Feels Like 72.0 °F
N
0.0
Wind Variable Wind from ESE
Gusts 0.0 mph

Today
High -- | Low -- °F
--% Chance of Precip.
Yesterday
High -- | Low -- °F
Precip. -- in
7:00 AM 7:50 PM
Full, 99% visible
Pressure 30.04 in
Visibility 10.0 miles
Clouds Clear
Dew Point 69 °F
Humidity 91%
Rainfall 0.00 in
Snow Depth Not available.
UV 0.5 out of 12
Pollen 5.80 out of 12
Air Quality Not available.
Flu Activity Not available.
METAR K11R 301315Z AUTO 00000KT 10SM CLR 24/22 A3004 RMK AO2 T02370224
Pressure 30.04 in
Visibility 10.0 miles
Clouds Clear
Dew Point 69 °F
Humidity 91%
Rainfall 0.00 in
Snow Depth Not available.
UV 0.5 out of 12
Pollen 5.80 out of 12
Air Quality Not available.
Flu Activity Not available.
METAR K11R 301315Z AUTO 00000KT 10SM CLR 24/22 A3004 RMK AO2 T02370224

10-Day Weather Forecast

×

Almanac

Astronomy

Aug. 30, 2015 Rise Set
Actual Time
Civil Twilight
Nautical Twilight
Astronomical Twilight
Moon
Length of Visible Light
Length of Day
Tomorrow will be .
, % of the Moon is Illuminated

Today's Extremes

State Highs State Lows

Community

WunderPhotos

Upload Photos

1,850,949 photos uploaded!

WunderBlogs® & News

Nearby

Air Quality

  Air Quality AQ Index Pollutant
Not available.

Snow Depth

Station Depth Elevation

Earthquake Activity

City Distance Mag. Time & Date
Minimum magnitude displayed is 2.5.

Coastal Water Temperatures

Place Temperature

Stations

Nearby Weather Stations

Station Location Temp. Windchill Dew Point Humidity Wind Precip. Elev Updated Type